Time;durP1;ratioP1;P1;durP2;ratioP2;P2;SDS_P1;SDS_P2;PMS_P1;PMS_P2;Temp;Humidity;BMP_temperature;BMP_pressure;BME280_temperature;BME280_humidity;BME280_pressure;Samples;Min_cycle;Max_cycle;Signal;HPM_P1;HPM_P2
2022/08/10 00:00:48;;;;;;;14.18;10.18;;;15.60;99.90;;;;;;4939451;29;20150;-71
2022/08/10 00:03:14;;;;;;;11.27;9.85;;;15.50;99.90;;;;;;4930700;29;20134;-71
2022/08/10 00:05:39;;;;;;;11.35;10.20;;;15.50;99.90;;;;;;4932289;29;20047;-70
2022/08/10 00:08:05;;;;;;;11.73;9.57;;;15.50;99.90;;;;;;4944557;29;20537;-70
2022/08/10 00:10:33;;;;;;;11.60;10.13;;;15.50;99.90;;;;;;4921518;29;20442;-69
2022/08/10 00:12:58;;;;;;;11.80;10.60;;;15.50;99.90;;;;;;4930822;29;20047;-70
2022/08/10 00:15:24;;;;;;;10.80;9.80;;;15.50;99.90;;;;;;4917287;29;20521;-71
2022/08/10 00:17:50;;;;;;;14.10;10.27;;;15.40;99.90;;;;;;4936059;29;20509;-70
2022/08/10 00:20:16;;;;;;;12.82;9.70;;;15.40;99.90;;;;;;4942311;29;20087;-71
2022/08/10 00:22:42;;;;;;;12.73;11.43;;;15.40;99.90;;;;;;4933754;29;20055;-71
2022/08/10 00:25:08;;;;;;;14.23;11.95;;;15.40;99.90;;;;;;4935339;29;20425;-71
2022/08/10 00:27:37;;;;;;;17.38;12.35;;;15.40;99.90;;;;;;4934280;29;20052;-71
2022/08/10 00:30:05;;;;;;;13.85;10.60;;;15.30;99.90;;;;;;4941693;29;20043;-71
2022/08/10 00:32:30;;;;;;;12.07;10.38;;;15.30;99.90;;;;;;4933383;29;20052;-71
2022/08/10 00:34:56;;;;;;;11.63;10.45;;;15.30;99.90;;;;;;4934188;29;20042;-70
2022/08/10 00:37:22;;;;;;;13.80;10.88;;;15.20;99.90;;;;;;4916846;29;20130;-71
2022/08/10 00:39:48;;;;;;;11.57;10.40;;;15.30;99.90;;;;;;4934106;29;20051;-70
2022/08/10 00:42:14;;;;;;;13.73;11.20;;;15.30;99.90;;;;;;4930202;29;20071;-71
2022/08/10 00:44:42;;;;;;;14.10;12.45;;;15.20;99.90;;;;;;4927879;29;20075;-71
2022/08/10 00:47:09;;;;;;;;;;;15.20;99.90;;;;;;4934579;29;20075;-71
2022/08/10 00:49:34;;;;;;;14.35;11.38;;;15.10;99.90;;;;;;4934708;29;19974;-71
2022/08/10 00:52:03;;;;;;;11.52;10.32;;;15.10;99.90;;;;;;4936153;29;20079;-71
2022/08/10 00:54:30;;;;;;;12.77;11.45;;;15.10;99.90;;;;;;4934414;29;20047;-71
2022/08/10 00:56:55;;;;;;;11.65;10.45;;;15.10;99.90;;;;;;4934078;29;20098;-71
2022/08/10 00:59:22;;;;;;;16.75;12.65;;;15.00;99.90;;;;;;4934049;29;20440;-71
2022/08/10 01:01:47;;;;;;;11.80;10.57;;;15.00;99.90;;;;;;4938005;29;20050;-71
2022/08/10 01:04:13;;;;;;;12.52;11.20;;;15.00;99.90;;;;;;4930648;29;20051;-70
2022/08/10 01:07:05;;;;;;;13.95;11.25;;;15.00;99.90;;;;;;4936681;29;20588;-71
2022/08/10 01:09:39;;;;;;;13.98;10.38;;;15.00;99.90;;;;;;4932066;29;20047;-70
2022/08/10 01:12:15;;;;;;;13.60;11.15;;;15.00;99.90;;;;;;4934434;29;20446;-71
2022/08/10 01:14:51;;;;;;;12.55;11.23;;;15.00;99.90;;;;;;4935738;29;20135;-71
2022/08/10 01:17:28;;;;;;;13.75;11.43;;;15.00;99.90;;;;;;4932388;29;20040;-71
2022/08/10 01:19:57;;;;;;;11.80;10.43;;;15.00;99.90;;;;;;4942355;29;20528;-71
2022/08/10 01:22:53;;;;;;;13.38;10.80;;;15.00;99.90;;;;;;4933389;29;20413;-70
2022/08/10 01:25:46;;;;;;;15.10;12.35;;;15.00;99.90;;;;;;4933228;29;20040;-70
2022/08/10 01:28:33;;;;;;;16.55;12.52;;;15.00;99.90;;;;;;4938181;29;20110;-70
2022/08/10 01:31:01;;;;;;;14.07;12.50;;;14.90;99.90;;;;;;4934429;29;20066;-70
2022/08/10 01:33:54;;;;;;;16.60;12.23;;;14.90;99.90;;;;;;4933400;29;20047;-71
2022/08/10 01:36:43;;;;;;;13.23;11.30;;;14.90;99.90;;;;;;4928697;29;20059;-71
2022/08/10 01:39:14;;;;;;;19.23;13.32;;;14.80;99.90;;;;;;4933436;29;20093;-71
2022/08/10 01:41:44;;;;;;;15.93;12.85;;;14.80;99.90;;;;;;4935519;29;20107;-70
2022/08/10 01:44:15;;;;;;;19.98;11.65;;;14.80;99.90;;;;;;4933394;29;20054;-71
2022/08/10 01:46:47;;;;;;;16.52;12.73;;;14.80;99.90;;;;;;4932956;29;20050;-71
2022/08/10 01:49:16;;;;;;;18.40;12.70;;;14.80;99.90;;;;;;4930129;29;20036;-71
2022/08/10 01:51:48;;;;;;;13.55;11.30;;;14.70;99.90;;;;;;4934055;29;20047;-71
2022/08/10 01:54:19;;;;;;;13.93;11.55;;;14.80;99.90;;;;;;4934693;29;20040;-71
2022/08/10 01:56:48;;;;;;;13.80;11.63;;;14.70;99.90;;;;;;4934083;29;20051;-72
2022/08/10 01:59:42;;;;;;;16.58;12.55;;;14.80;99.90;;;;;;4921587;29;20510;-72
2022/08/10 02:02:12;;;;;;;17.80;11.57;;;14.70;99.90;;;;;;4933755;29;20083;-72
2022/08/10 02:04:41;;;;;;;17.27;11.88;;;14.70;99.90;;;;;;4936535;29;20051;-72
2022/08/10 02:07:13;;;;;;;13.48;12.07;;;14.80;99.90;;;;;;4934738;29;20075;-72
2022/08/10 02:09:42;;;;;;;17.83;12.85;;;14.80;99.90;;;;;;4931552;29;20055;-71
2022/08/10 02:12:11;;;;;;;15.10;13.55;;;14.80;99.90;;;;;;4914803;29;20039;-72
2022/08/10 02:14:45;;;;;;;16.55;12.73;;;14.80;99.90;;;;;;4932044;29;20078;-72
2022/08/10 02:17:16;;;;;;;15.65;13.25;;;14.80;99.90;;;;;;4932324;29;20383;-72
2022/08/10 02:19:43;;;;;;;14.77;12.52;;;14.80;99.90;;;;;;4915639;29;20056;-71
2022/08/10 02:22:11;;;;;;;18.42;13.20;;;14.80;99.90;;;;;;4931432;29;20058;-72
2022/08/10 02:24:39;;;;;;;20.13;14.27;;;14.80;99.90;;;;;;4931931;29;20043;-72
2022/08/10 02:27:06;;;;;;;17.67;14.80;;;14.70;99.90;;;;;;4915232;29;20114;-71
2022/08/10 02:29:33;;;;;;;18.13;13.45;;;14.80;99.90;;;;;;4930465;29;20055;-72
2022/08/10 02:31:59;;;;;;;16.25;13.77;;;14.70;99.90;;;;;;4932206;29;20055;-72
2022/08/10 02:34:26;;;;;;;16.20;13.25;;;14.70;99.90;;;;;;4930572;29;20039;-71
2022/08/10 02:36:54;;;;;;;16.92;12.30;;;14.70;99.90;;;;;;4931493;29;20489;-71
2022/08/10 02:39:23;;;;;;;14.90;12.15;;;14.60;99.90;;;;;;4916632;29;20128;-71
2022/08/10 02:41:48;;;;;;;16.67;12.23;;;14.60;99.90;;;;;;4916937;29;20844;-72
2022/08/10 02:44:41;;;;;;;17.92;11.50;;;14.60;99.90;;;;;;4912085;29;20055;-72
2022/08/10 02:47:24;;;;;;;12.77;11.45;;;14.60;99.90;;;;;;4933271;29;20528;-72
2022/08/10 02:50:07;;;;;;;14.57;12.75;;;14.50;99.90;;;;;;4923609;29;20054;-72
2022/08/10 02:53:15;;;;;;;16.02;12.45;;;14.50;99.90;;;;;;4927534;29;20044;-72
2022/08/10 02:55:58;;;;;;;19.15;13.95;;;14.50;99.90;;;;;;4934587;29;20198;-72
2022/08/10 02:58:46;;;;;;;16.13;14.00;;;14.40;99.90;;;;;;4931884;29;20068;-71
2022/08/10 03:01:22;;;;;;;16.40;13.98;;;14.40;99.90;;;;;;4932643;29;20044;-71
2022/08/10 03:03:58;;;;;;;17.25;15.27;;;14.40;99.90;;;;;;4924944;29;20114;-71
2022/08/10 03:06:33;;;;;;;16.02;13.35;;;14.30;99.90;;;;;;4940446;29;20157;-71
2022/08/10 03:09:01;;;;;;;15.63;13.20;;;14.30;99.90;;;;;;4931380;29;20046;-71
2022/08/10 03:11:29;;;;;;;17.58;14.07;;;14.30;99.90;;;;;;4917592;29;20126;-71
2022/08/10 03:13:57;;;;;;;;;;;14.40;99.90;;;;;;4928902;29;20537;-74
2022/08/10 03:16:25;;;;;;;13.63;12.32;;;14.30;99.90;;;;;;4914595;29;20811;-77
2022/08/10 03:18:53;;;;;;;15.88;13.20;;;14.30;99.90;;;;;;4919624;29;20055;-77
2022/08/10 03:21:22;;;;;;;13.57;11.52;;;14.30;99.90;;;;;;4930496;29;20058;-77
2022/08/10 03:23:49;;;;;;;14.93;13.32;;;14.30;99.90;;;;;;4910573;29;20098;-78
2022/08/10 03:26:15;;;;;;;14.85;11.80;;;14.30;99.90;;;;;;4913753;29;20055;-78
2022/08/10 03:28:44;;;;;;;14.40;11.30;;;14.30;99.90;;;;;;4915973;29;20212;-77
2022/08/10 03:31:10;;;;;;;18.80;12.07;;;14.30;99.90;;;;;;4935133;29;20051;-77
2022/08/10 03:33:40;;;;;;;11.57;10.35;;;14.30;99.90;;;;;;4922082;29;20047;-77
2022/08/10 03:36:06;;;;;;;11.93;10.60;;;14.30;99.90;;;;;;4916260;29;20155;-76
2022/08/10 03:38:33;;;;;;;13.68;11.32;;;14.30;99.90;;;;;;4927023;29;20047;-77
2022/08/10 03:41:02;;;;;;;10.43;9.38;;;14.20;99.90;;;;;;4913455;29;20052;-76
2022/08/10 03:43:29;;;;;;;13.93;11.45;;;14.30;99.90;;;;;;4899473;29;20043;-77
2022/08/10 03:46:01;;;;;;;11.55;10.00;;;14.30;99.90;;;;;;4896904;29;20059;-77
2022/08/10 03:48:29;;;;;;;13.60;11.85;;;14.30;99.90;;;;;;4932251;29;20082;-76
2022/08/10 03:50:56;;;;;;;12.00;10.68;;;14.20;99.90;;;;;;4911279;29;20061;-76
2022/08/10 03:53:23;;;;;;;11.73;10.55;;;14.20;99.90;;;;;;4929409;29;20070;-76
2022/08/10 03:55:50;;;;;;;13.23;11.05;;;14.20;99.90;;;;;;4915188;29;20099;-76
2022/08/10 03:58:16;;;;;;;13.20;11.65;;;14.20;99.90;;;;;;4916560;29;20130;-76
2022/08/10 04:00:43;;;;;;;11.48;10.25;;;14.10;99.90;;;;;;4917144;29;20055;-76
2022/08/10 04:03:10;;;;;;;10.27;9.05;;;14.10;99.90;;;;;;4928399;29;20051;-78
2022/08/10 04:05:36;;;;;;;10.07;9.00;;;14.10;99.90;;;;;;4915609;29;20047;-77
2022/08/10 04:08:03;;;;;;;11.30;9.90;;;14.10;99.90;;;;;;4910689;29;20123;-77
2022/08/10 04:10:28;;;;;;;11.50;10.35;;;14.10;99.90;;;;;;4912945;29;20551;-78
2022/08/10 04:12:55;;;;;;;12.85;9.20;;;14.10;99.90;;;;;;4930779;29;20134;-78
2022/08/10 04:15:23;;;;;;;11.07;9.65;;;14.10;99.90;;;;;;4915204;29;20123;-77
2022/08/10 04:17:49;;;;;;;11.13;10.02;;;14.10;99.90;;;;;;4913582;29;20062;-77
2022/08/10 04:20:41;;;;;;;13.80;10.70;;;14.10;99.90;;;;;;4913233;29;20087;-77
2022/08/10 04:23:13;;;;;;;13.57;11.32;;;14.10;99.90;;;;;;4892842;29;20095;-75
2022/08/10 04:25:39;;;;;;;14.70;13.10;;;14.10;99.90;;;;;;4912129;29;20051;-74
2022/08/10 04:28:07;;;;;;;15.95;12.52;;;14.20;99.90;;;;;;4927029;29;20051;-76
2022/08/10 04:30:35;;;;;;;15.95;11.25;;;14.20;99.90;;;;;;4912508;29;20056;-77
2022/08/10 04:33:05;;;;;;;16.27;13.30;;;14.20;99.90;;;;;;4915928;29;20047;-76
2022/08/10 04:35:32;;;;;;;13.57;12.18;;;14.40;99.90;;;;;;4930696;29;20051;-74
2022/08/10 04:38:00;;;;;;;21.13;13.40;;;14.50;99.90;;;;;;4936295;29;20134;-74
2022/08/10 04:40:26;;;;;;;18.40;13.77;;;14.50;99.90;;;;;;4910063;29;20501;-72
2022/08/10 04:42:52;;;;;;;17.08;12.80;;;14.50;99.90;;;;;;4917387;29;20091;-72
2022/08/10 04:45:18;;;;;;;15.05;13.45;;;14.50;99.90;;;;;;4929800;29;20409;-72
2022/08/10 04:47:43;;;;;;;18.92;15.60;;;14.50;99.90;;;;;;4919704;29;20043;-74
2022/08/10 04:50:09;;;;;;;18.58;13.02;;;14.40;99.90;;;;;;4910281;29;20047;-73
2022/08/10 04:52:35;;;;;;;14.65;13.05;;;14.50;99.90;;;;;;4911851;29;20049;-74
2022/08/10 04:55:01;;;;;;;17.58;14.20;;;14.50;99.90;;;;;;4913878;29;20143;-74
2022/08/10 04:57:27;;;;;;;17.25;14.10;;;14.50;99.90;;;;;;4911438;29;20127;-74
2022/08/10 04:59:52;;;;;;;15.30;12.70;;;14.50;99.90;;;;;;4930174;29;20047;-75
2022/08/10 05:02:18;;;;;;;15.27;12.55;;;14.60;99.90;;;;;;4920237;29;20135;-73
2022/08/10 05:04:44;;;;;;;18.83;14.23;;;14.60;99.90;;;;;;4924519;29;20051;-74
2022/08/10 05:07:12;;;;;;;15.43;13.77;;;14.70;99.90;;;;;;4940987;29;20055;-74
2022/08/10 05:09:39;;;;;;;16.45;13.43;;;14.80;99.90;;;;;;4923123;29;20047;-74
2022/08/10 05:12:05;;;;;;;17.88;13.27;;;14.90;99.90;;;;;;4918728;29;20091;-74
2022/08/10 05:14:31;;;;;;;15.80;13.38;;;15.00;99.90;;;;;;4934847;29;20039;-74
2022/08/10 05:16:57;;;;;;;17.00;14.40;;;15.10;99.90;;;;;;4921678;29;20063;-73
2022/08/10 05:19:22;;;;;;;18.02;13.27;;;15.20;99.90;;;;;;4924637;29;20040;-74
2022/08/10 05:21:48;;;;;;;17.35;12.63;;;15.30;99.90;;;;;;4919888;29;20483;-74
2022/08/10 05:24:14;;;;;;;18.88;12.70;;;15.30;99.90;;;;;;4914263;29;20039;-74
2022/08/10 05:26:39;;;;;;;19.73;13.65;;;15.40;99.90;;;;;;4915817;29;20560;-75
2022/08/10 05:29:05;;;;;;;14.43;11.02;;;15.50;99.90;;;;;;4914649;29;20160;-74
2022/08/10 05:31:31;;;;;;;12.63;9.43;;;15.50;99.90;;;;;;4914425;29;20473;-75
2022/08/10 05:33:57;;;;;;;15.60;10.65;;;15.50;99.90;;;;;;4916437;29;20110;-75
2022/08/10 05:36:23;;;;;;;12.98;10.90;;;15.50;99.90;;;;;;4922150;29;20080;-74
2022/08/10 05:38:50;;;;;;;13.32;11.48;;;15.60;99.90;;;;;;4937330;29;20058;-74
2022/08/10 05:41:16;;;;;;;12.15;10.70;;;15.60;99.90;;;;;;4916895;29;20424;-74
2022/08/10 05:43:43;;;;;;;16.58;12.32;;;15.60;99.90;;;;;;4912670;29;20098;-73
2022/08/10 05:46:09;;;;;;;13.32;10.75;;;15.60;99.90;;;;;;4928473;29;20047;-74
2022/08/10 05:48:37;;;;;;;12.35;11.05;;;15.60;99.90;;;;;;4904987;29;20118;-74
2022/08/10 05:51:03;;;;;;;17.85;14.43;;;15.70;99.90;;;;;;4927010;29;20456;-74
2022/08/10 05:53:31;;;;;;;20.60;15.15;;;15.70;99.90;;;;;;4918660;29;20102;-73
2022/08/10 05:55:57;;;;;;;;;;;15.80;99.90;;;;;;4924679;29;20574;-74
2022/08/10 05:58:23;;;;;;;24.27;17.33;;;15.80;99.90;;;;;;4931330;29;19923;-75
2022/08/10 06:00:53;;;;;;;19.80;17.05;;;15.80;99.90;;;;;;4916897;29;20087;-74
2022/08/10 06:03:25;;;;;;;20.77;16.02;;;15.90;99.90;;;;;;4918421;29;20054;-74
2022/08/10 06:05:55;;;;;;;23.63;16.95;;;15.90;99.90;;;;;;4930569;29;20405;-74
2022/08/10 06:08:27;;;;;;;20.83;16.58;;;16.00;99.90;;;;;;4918608;29;20055;-74
2022/08/10 06:10:55;;;;;;;24.70;16.55;;;16.10;99.90;;;;;;4916474;29;20464;-74
2022/08/10 06:16:17;;;;;;;28.52;14.93;;;16.20;99.90;;;;;;4901455;29;20052;-75
2022/08/10 06:18:44;;;;;;;18.90;13.65;;;16.30;99.90;;;;;;4933022;29;20574;-75
2022/08/10 06:21:10;;;;;;;20.60;14.63;;;16.30;99.90;;;;;;4915368;29;20095;-74
2022/08/10 06:23:38;;;;;;;16.35;13.48;;;16.40;99.90;;;;;;4920799;29;20051;-74
2022/08/10 06:26:06;;;;;;;18.30;15.03;;;16.40;99.90;;;;;;4930614;29;20044;-74
2022/08/10 06:28:36;;;;;;;22.58;15.23;;;16.50;99.90;;;;;;4931924;29;20513;-74
2022/08/10 06:31:04;;;;;;;16.95;14.98;;;16.50;99.90;;;;;;4914258;29;20425;-75
2022/08/10 06:33:33;;;;;;;17.23;14.77;;;16.60;99.90;;;;;;4919057;29;20453;-74
2022/08/10 06:36:00;;;;;;;19.05;13.27;;;16.60;99.90;;;;;;4918732;29;20062;-74
2022/08/10 06:38:30;;;;;;;19.60;13.82;;;16.70;99.90;;;;;;4930464;29;20099;-74
2022/08/10 06:41:01;;;;;;;18.13;13.68;;;16.80;99.90;;;;;;4929024;29;20048;-74
2022/08/10 06:43:29;;;;;;;15.48;12.85;;;16.90;99.90;;;;;;4915714;29;20497;-75
2022/08/10 06:46:02;;;;;;;16.35;13.55;;;16.90;99.90;;;;;;4937427;29;20061;-74
2022/08/10 06:48:32;;;;;;;15.32;11.60;;;17.00;99.90;;;;;;4932754;29;20043;-74
2022/08/10 06:51:05;;;;;;;19.13;13.57;;;17.10;99.90;;;;;;4931544;29;20103;-74
2022/08/10 06:53:36;;;;;;;20.98;13.43;;;17.20;99.90;;;;;;4931106;29;20167;-74
2022/08/10 06:56:07;;;;;;;14.13;10.98;;;17.40;99.90;;;;;;4936886;29;20047;-74
2022/08/10 06:58:51;;;;;;;12.65;10.85;;;17.60;99.90;;;;;;4929900;29;20115;-74
2022/08/10 07:01:21;;;;;;;13.07;10.07;;;17.80;99.90;;;;;;4925269;29;20401;-75
2022/08/10 07:03:58;;;;;;;15.75;10.20;;;18.10;99.90;;;;;;4908105;29;20059;-73
2022/08/10 07:06:25;;;;;;;15.57;10.77;;;18.30;99.90;;;;;;4933649;29;20055;-74
2022/08/10 07:08:51;;;;;;;12.13;10.50;;;18.60;99.90;;;;;;4928653;29;20063;-75
2022/08/10 07:11:19;;;;;;;12.60;8.82;;;18.80;99.90;;;;;;4914215;29;20417;-75
2022/08/10 07:13:45;;;;;;;11.73;9.32;;;19.10;99.90;;;;;;4929559;29;20052;-75
2022/08/10 07:16:12;;;;;;;10.98;9.05;;;19.30;99.90;;;;;;4930759;29;20174;-76
2022/08/10 07:18:41;;;;;;;10.27;7.85;;;19.60;99.90;;;;;;4910551;29;20048;-76
2022/08/10 07:21:07;;;;;;;9.88;8.85;;;19.90;99.90;;;;;;4913054;29;20052;-75
2022/08/10 07:23:35;;;;;;;13.13;8.50;;;20.30;99.90;;;;;;4913394;29;20536;-75
2022/08/10 07:26:02;;;;;;;12.50;7.97;;;20.60;99.90;;;;;;4918490;29;20076;-75
2022/08/10 07:28:32;;;;;;;12.48;9.02;;;20.80;99.90;;;;;;4933157;29;20054;-75
2022/08/10 07:30:59;;;;;;;6.97;6.28;;;21.10;99.90;;;;;;4922711;29;20199;-74
2022/08/10 07:33:27;;;;;;;7.80;7.07;;;21.40;99.90;;;;;;4920116;29;20118;-74
2022/08/10 07:35:54;;;;;;;;;;;21.50;99.90;;;;;;4928347;29;20056;-75
2022/08/10 07:38:27;;;;;;;10.30;6.68;;;21.60;99.90;;;;;;4936734;29;19982;-75
2022/08/10 07:40:53;;;;;;;7.63;6.07;;;21.80;99.90;;;;;;4928185;29;20055;-75
2022/08/10 07:43:22;;;;;;;13.73;7.07;;;21.90;99.90;;;;;;4913081;29;20039;-74
2022/08/10 07:45:49;;;;;;;7.38;6.68;;;21.90;99.90;;;;;;4928464;29;20051;-75
2022/08/10 07:48:27;;;;;;;7.63;6.75;;;22.20;99.90;;;;;;4921698;29;20493;-75
2022/08/10 07:50:58;;;;;;;7.43;6.63;;;22.40;99.90;;;;;;4933749;29;20055;-74
2022/08/10 07:53:33;;;;;;;6.80;6.10;;;22.30;99.90;;;;;;4929918;29;20059;-74
2022/08/10 07:56:01;;;;;;;8.63;6.68;;;22.50;99.90;;;;;;4929956;29;20051;-74
2022/08/10 07:58:47;;;;;;;8.60;6.03;;;22.70;99.90;;;;;;4928615;29;20706;-73
2022/08/10 08:01:14;;;;;;;9.40;6.43;;;22.90;99.90;;;;;;4920418;29;20059;-73
2022/08/10 08:03:43;;;;;;;6.32;5.70;;;23.10;99.90;;;;;;4929909;29;20043;-74
2022/08/10 08:06:10;;;;;;;6.82;5.55;;;23.10;99.90;;;;;;4934704;29;20083;-74
2022/08/10 08:08:38;;;;;;;6.87;4.97;;;23.50;99.90;;;;;;4922633;29;20090;-76
2022/08/10 08:11:05;;;;;;;11.32;5.78;;;23.50;99.90;;;;;;4929215;29;20056;-75
2022/08/10 08:13:32;;;;;;;11.90;6.68;;;23.50;99.90;;;;;;4911424;29;20116;-74
2022/08/10 08:15:59;;;;;;;;;;;23.70;99.90;;;;;;4925022;29;20048;-75
2022/08/10 08:18:27;;;;;;;6.22;5.63;;;23.50;99.90;;;;;;4927857;29;19974;-75
2022/08/10 08:20:54;;;;;;;8.07;5.80;;;23.50;99.90;;;;;;4910968;29;20055;-74
2022/08/10 08:23:21;;;;;;;8.90;6.28;;;23.40;99.90;;;;;;4914120;29;20222;-74
2022/08/10 08:25:47;;;;;;;7.50;5.68;;;23.50;99.90;;;;;;4912363;29;20059;-74
2022/08/10 08:28:13;;;;;;;9.02;5.45;;;23.60;99.90;;;;;;4912419;29;20064;-74
2022/08/10 08:30:40;;;;;;;7.57;4.97;;;23.90;99.90;;;;;;4928360;29;20060;-73
2022/08/10 08:33:07;;;;;;;7.75;5.50;;;24.10;99.90;;;;;;4909574;29;20564;-73
2022/08/10 08:35:33;;;;;;;8.52;5.40;;;24.20;99.90;;;;;;4928968;29;20040;-73
2022/08/10 08:38:00;;;;;;;11.50;5.68;;;24.30;99.90;;;;;;4916465;29;20047;-73
2022/08/10 08:40:32;;;;;;;14.52;7.00;;;24.50;99.90;;;;;;4913264;29;20054;-75
2022/08/10 08:43:31;;;;;;;12.10;6.07;;;24.50;99.90;;;;;;4932387;29;20175;-74
2022/08/10 08:46:30;;;;;;;6.95;6.20;;;24.80;99.90;;;;;;4915359;29;20059;-73
2022/08/10 08:49:22;;;;;;;9.50;5.88;;;24.80;99.90;;;;;;4916290;29;20528;-73
2022/08/10 08:52:06;;;;;;;8.13;4.93;;;24.90;99.90;;;;;;4918812;29;20489;-74
2022/08/10 08:54:41;;;;;;;8.48;6.03;;;25.00;99.90;;;;;;4928657;29;20416;-74
2022/08/10 08:57:42;;;;;;;6.85;5.68;;;25.20;99.90;;;;;;4913090;29;20179;-74
2022/08/10 09:00:14;;;;;;;9.15;5.45;;;25.50;99.90;;;;;;4895778;29;20583;-74
2022/08/10 09:03:10;;;;;;;5.70;5.15;;;25.60;99.90;;;;;;4927313;29;20215;-74
2022/08/10 09:06:06;;;;;;;8.88;6.97;;;25.80;99.90;;;;;;4912620;29;20067;-74
2022/08/10 09:08:58;;;;;;;8.50;5.22;;;25.90;99.30;;;;;;4913601;29;20575;-74
2022/08/10 09:11:54;;;;;;;5.28;4.88;;;25.90;99.90;;;;;;4913288;29;20057;-74
2022/08/10 09:14:37;;;;;;;11.15;4.95;;;26.00;99.50;;;;;;4933141;29;20559;-73
2022/08/10 09:17:16;;;;;;;5.47;4.47;;;26.10;95.90;;;;;;4921214;29;20044;-74
2022/08/10 09:19:55;;;;;;;6.00;5.40;;;26.20;98.30;;;;;;4931725;29;20099;-74
2022/08/10 09:22:47;;;;;;;9.07;5.45;;;26.00;94.80;;;;;;4934088;29;20048;-74
2022/08/10 09:25:17;;;;;;;4.68;4.28;;;26.00;95.80;;;;;;4927095;29;20051;-74
2022/08/10 09:27:51;;;;;;;7.53;4.85;;;26.30;99.00;;;;;;4916051;29;20052;-74
2022/08/10 09:30:35;;;;;;;8.00;4.53;;;26.30;94.80;;;;;;4928798;29;20048;-74
2022/08/10 09:33:11;;;;;;;5.63;3.97;;;26.30;90.20;;;;;;4920009;29;20139;-74
2022/08/10 09:35:52;;;;;;;5.10;4.13;;;26.30;83.60;;;;;;4908835;29;20059;-74
2022/08/10 09:38:44;;;;;;;7.10;4.53;;;26.40;83.50;;;;;;4913572;29;20052;-74
2022/08/10 09:41:45;;;;;;;5.88;5.05;;;26.40;83.40;;;;;;4915414;29;20505;-74
2022/08/10 09:44:32;;;;;;;11.75;4.53;;;26.60;83.90;;;;;;4915704;29;20056;-74
2022/08/10 09:47:36;;;;;;;4.90;4.43;;;26.60;81.90;;;;;;4927665;29;20044;-74
2022/08/10 09:50:06;;;;;;;7.13;4.82;;;26.40;72.80;;;;;;4914084;29;20063;-73
2022/08/10 09:52:53;;;;;;;10.15;4.93;;;26.50;79.10;;;;;;4921364;29;20514;-74
2022/08/10 09:55:51;;;;;;;12.95;5.13;;;26.50;75.90;;;;;;4929622;29;20052;-73
2022/08/10 09:58:33;;;;;;;8.60;4.25;;;26.70;76.30;;;;;;4880208;29;20154;-74
2022/08/10 10:01:12;;;;;;;6.88;4.25;;;26.70;78.10;;;;;;4932637;29;20126;-74
2022/08/10 10:03:46;;;;;;;5.15;3.45;;;26.90;72.20;;;;;;4927748;29;20051;-74
2022/08/10 10:06:20;;;;;;;8.48;4.70;;;26.90;71.00;;;;;;4916271;29;20379;-74
2022/08/10 10:09:05;;;;;;;5.63;4.35;;;27.00;68.80;;;;;;4933564;29;20339;-74
2022/08/10 10:11:59;;;;;;;5.90;4.22;;;26.90;70.60;;;;;;4936839;29;20412;-74
2022/08/10 10:18:02;;;;;;;6.28;3.80;;;27.00;66.60;;;;;;4931033;29;20130;-74
2022/08/10 10:20:40;;;;;;;7.90;3.55;;;27.10;66.20;;;;;;4913719;29;20113;-74
2022/08/10 10:23:34;;;;;;;3.67;3.28;;;27.10;65.30;;;;;;4910670;29;20686;-74
2022/08/10 10:26:08;;;;;;;3.33;2.95;;;27.00;62.90;;;;;;4926650;29;20063;-76
2022/08/10 10:28:59;;;;;;;3.72;3.10;;;27.20;65.20;;;;;;4918106;29;20055;-74
2022/08/10 10:31:33;;;;;;;5.53;4.20;;;27.40;62.30;;;;;;4915350;29;20055;-74
2022/08/10 10:34:07;;;;;;;3.63;3.17;;;27.30;63.60;;;;;;4931951;29;20048;-75
2022/08/10 10:36:34;;;;;;;2.67;2.47;;;27.40;62.40;;;;;;4921072;29;20075;-74
2022/08/10 10:39:02;;;;;;;2.40;2.20;;;27.50;61.10;;;;;;4911236;29;20087;-75
2022/08/10 10:41:39;;;;;;;3.92;3.13;;;27.60;60.10;;;;;;4916595;29;20055;-74
2022/08/10 10:44:24;;;;;;;;;;;27.50;58.80;;;;;;4931167;29;20064;-75
2022/08/10 10:47:14;;;;;;;3.50;3.20;;;27.60;59.90;;;;;;4912695;29;19923;-73
2022/08/10 10:49:46;;;;;;;3.97;3.50;;;27.60;58.50;;;;;;4931852;29;20055;-74
2022/08/10 10:52:37;;;;;;;3.22;2.92;;;27.80;59.10;;;;;;4911703;29;20059;-74
2022/08/10 10:55:22;;;;;;;3.42;2.60;;;27.80;57.90;;;;;;4912730;29;20086;-73
2022/08/10 10:58:12;;;;;;;4.05;2.67;;;28.00;56.10;;;;;;4926959;29;20113;-74
2022/08/10 11:01:13;;;;;;;5.85;3.00;;;27.90;56.30;;;;;;4915733;29;20052;-74
2022/08/10 11:04:07;;;;;;;4.60;2.60;;;27.90;56.80;;;;;;4884643;29;20074;-75
2022/08/10 11:06:38;;;;;;;3.17;2.67;;;28.00;57.40;;;;;;4917237;29;20074;-74
2022/08/10 11:09:14;;;;;;;9.20;3.10;;;28.00;55.70;;;;;;4899716;29;20051;-73
2022/08/10 11:11:42;;;;;;;3.13;2.80;;;27.80;55.60;;;;;;4930177;29;20052;-73
2022/08/10 11:14:15;;;;;;;3.88;3.15;;;27.80;55.90;;;;;;4919057;29;20047;-74
2022/08/10 11:16:52;;;;;;;4.22;3.10;;;28.10;56.10;;;;;;4935258;29;20051;-75
2022/08/10 11:19:38;;;;;;;7.00;2.60;;;28.20;54.60;;;;;;4930623;29;20058;-75
2022/08/10 11:22:34;;;;;;;3.30;2.85;;;28.10;52.80;;;;;;4931778;29;20622;-74
2022/08/10 11:25:21;;;;;;;2.70;2.45;;;28.10;52.50;;;;;;4907807;29;20072;-74
2022/08/10 11:28:09;;;;;;;6.05;3.30;;;28.10;52.80;;;;;;4911873;29;20083;-74
2022/08/10 11:30:54;;;;;;;2.70;2.45;;;28.00;54.80;;;;;;4915674;29;20063;-74
2022/08/10 11:33:47;;;;;;;2.65;2.25;;;28.20;51.80;;;;;;4907971;29;20051;-74
2022/08/10 11:36:24;;;;;;;3.83;2.70;;;28.10;51.20;;;;;;4930381;29;20046;-73
2022/08/10 11:39:01;;;;;;;3.50;2.63;;;28.00;53.40;;;;;;4929576;29;20057;-73
2022/08/10 11:41:40;;;;;;;3.25;2.95;;;28.20;52.90;;;;;;4929881;29;20087;-73
2022/08/10 11:44:18;;;;;;;8.48;2.60;;;28.30;53.20;;;;;;4921440;29;20103;-73
2022/08/10 11:47:08;;;;;;;4.57;2.63;;;28.40;50.70;;;;;;4935774;29;20102;-74
2022/08/10 11:49:49;;;;;;;5.53;2.95;;;28.30;51.60;;;;;;4916002;29;20797;-73
2022/08/10 11:52:25;;;;;;;6.95;3.42;;;28.50;52.00;;;;;;4903562;29;20082;-73
2022/08/10 11:54:57;;;;;;;3.25;2.58;;;28.50;52.40;;;;;;4923868;29;20087;-74
2022/08/10 11:57:29;;;;;;;4.30;2.75;;;28.50;52.90;;;;;;4930114;29;20063;-74
2022/08/10 11:59:55;;;;;;;3.78;3.00;;;28.60;51.90;;;;;;4925013;29;20048;-74
2022/08/10 12:02:30;;;;;;;8.88;3.58;;;28.60;52.90;;;;;;4909595;29;20127;-74
2022/08/10 12:05:08;;;;;;;23.67;3.00;;;28.60;53.00;;;;;;4929714;29;20089;-74
2022/08/10 12:07:40;;;;;;;4.72;3.03;;;28.80;52.40;;;;;;4929397;29;20043;-74
2022/08/10 12:10:07;;;;;;;2.78;2.58;;;28.90;52.00;;;;;;4927203;29;20047;-74
2022/08/10 12:12:41;;;;;;;4.47;2.92;;;28.80;52.50;;;;;;4930089;29;20047;-74
2022/08/10 12:15:21;;;;;;;3.05;2.40;;;28.90;52.30;;;;;;4927960;29;20075;-74
2022/08/10 12:17:52;;;;;;;3.58;3.28;;;28.90;52.00;;;;;;4921835;29;20056;-74
2022/08/10 12:20:28;;;;;;;2.60;2.40;;;29.00;51.80;;;;;;4929853;29;20516;-75
2022/08/10 12:23:18;;;;;;;3.33;2.87;;;29.20;51.00;;;;;;4913776;29;20047;-74
2022/08/10 12:25:57;;;;;;;2.85;2.63;;;29.30;50.20;;;;;;4933582;29;20095;-74
2022/08/10 12:29:02;;;;;;;3.65;3.35;;;29.20;51.30;;;;;;4915040;29;20435;-77
2022/08/10 12:31:41;;;;;;;3.67;2.80;;;29.00;51.00;;;;;;4901226;29;20090;-74
2022/08/10 12:34:18;;;;;;;2.60;2.40;;;28.80;50.70;;;;;;4926756;29;20518;-74
2022/08/10 12:37:16;;;;;;;2.90;2.70;;;29.00;50.90;;;;;;4912138;29;20055;-76
2022/08/10 12:40:01;;;;;;;2.90;2.70;;;29.10;49.20;;;;;;4924631;29;20047;-75
2022/08/10 12:42:45;;;;;;;4.35;2.72;;;28.90;48.30;;;;;;4927438;29;20138;-74
2022/08/10 12:45:24;;;;;;;4.10;3.10;;;29.00;48.40;;;;;;4930312;29;20095;-74
2022/08/10 12:48:00;;;;;;;3.30;2.55;;;29.00;49.00;;;;;;4935464;29;20048;-74
2022/08/10 12:50:52;;;;;;;6.18;2.88;;;29.00;48.20;;;;;;4932593;29;20039;-74
2022/08/10 12:53:31;;;;;;;4.53;3.30;;;28.90;47.50;;;;;;4908447;29;20131;-75
2022/08/10 12:56:00;;;;;;;5.40;3.08;;;29.00;48.40;;;;;;4911746;29;20051;-74
2022/08/10 12:58:27;;;;;;;4.03;2.90;;;29.10;48.90;;;;;;4912009;29;20058;-74
2022/08/10 13:00:55;;;;;;;3.33;2.70;;;29.10;48.50;;;;;;4912746;29;20381;-74
2022/08/10 13:03:23;;;;;;;2.45;2.25;;;28.90;48.10;;;;;;4910611;29;20071;-74
2022/08/10 13:05:51;;;;;;;3.42;2.22;;;28.80;48.30;;;;;;4914733;29;20055;-73
2022/08/10 13:11:05;;;;;;;;;;;29.10;49.00;;;;;;4904833;29;20064;-72
2022/08/10 13:13:38;;;;;;;3.58;2.58;;;29.10;49.50;;;;;;4924982;29;19970;-73
2022/08/10 13:16:06;;;;;;;3.63;3.33;;;29.20;49.20;;;;;;4924884;29;20052;-72
2022/08/10 13:18:38;;;;;;;2.60;2.35;;;29.20;49.10;;;;;;4930917;29;20525;-73